createdAt,value
2018-09-15T00:03:16.964Z,8.20
2018-09-15T00:08:10.266Z,6.47
2018-09-15T00:13:03.662Z,7.12
2018-09-15T00:17:58.031Z,6.15
2018-09-15T00:22:51.284Z,8.60
2018-09-15T00:27:44.567Z,10.35
2018-09-15T00:32:37.805Z,8.13
2018-09-15T00:37:31.072Z,6.47
2018-09-15T00:42:24.352Z,6.95
2018-09-15T00:47:17.939Z,6.85
2018-09-15T00:52:11.752Z,5.08
2018-09-15T00:57:05.084Z,4.95
2018-09-15T01:01:58.340Z,8.73
2018-09-15T01:06:51.625Z,6.42
2018-09-15T01:11:44.917Z,5.62
2018-09-15T01:16:38.887Z,6.92
2018-09-15T01:21:32.139Z,8.03
2018-09-15T01:26:25.418Z,4.25
2018-09-15T01:31:21.794Z,3.52
2018-09-15T01:36:15.057Z,4.60
2018-09-15T01:41:09.259Z,7.33
2018-09-15T01:46:03.113Z,4.35
2018-09-15T01:50:56.357Z,6.28
2018-09-15T01:55:49.747Z,5.55
2018-09-15T02:00:42.997Z,4.87
2018-09-15T02:05:36.195Z,4.87
2018-09-15T02:10:29.462Z,7.08
2018-09-15T02:15:22.691Z,4.53
2018-09-15T02:20:15.950Z,4.05
2018-09-15T02:25:12.061Z,7.62
2018-09-15T02:30:05.453Z,4.17
2018-09-15T02:34:58.773Z,5.40
2018-09-15T02:39:52.675Z,3.55
2018-09-15T02:44:45.927Z,4.80
2018-09-15T02:49:39.158Z,3.62
2018-09-15T02:54:32.430Z,7.92
2018-09-15T02:59:26.091Z,7.15
2018-09-15T03:04:19.648Z,6.12
2018-09-15T03:09:13.668Z,4.12
2018-09-15T03:14:06.947Z,6.03
2018-09-15T03:19:00.212Z,3.35
2018-09-15T03:23:53.441Z,5.83
2018-09-15T03:28:46.942Z,4.67
2018-09-15T03:33:40.992Z,3.98
2018-09-15T03:38:34.235Z,2.62
2018-09-15T03:43:27.472Z,4.67
2018-09-15T03:48:20.722Z,3.75
2018-09-15T03:53:13.955Z,4.03
2018-09-15T03:58:07.202Z,4.50
2018-09-15T04:03:00.453Z,5.00
2018-09-15T04:07:53.729Z,4.40
2018-09-15T04:12:47.029Z,3.72
2018-09-15T04:17:40.370Z,6.37
2018-09-15T04:22:33.611Z,3.37
2018-09-15T04:27:26.866Z,6.62
2018-09-15T04:32:20.071Z,3.55
2018-09-15T04:37:13.304Z,3.77
2018-09-15T04:42:06.581Z,5.83
2018-09-15T04:46:59.832Z,4.78
2018-09-15T04:51:53.140Z,4.95
2018-09-15T04:56:46.488Z,3.70
2018-09-15T05:01:39.718Z,4.90
2018-09-15T05:06:33.024Z,5.08
2018-09-15T05:11:26.274Z,4.42
2018-09-15T05:16:19.529Z,4.70
2018-09-15T05:21:12.768Z,5.83
2018-09-15T05:26:06.054Z,4.25
2018-09-15T05:30:59.544Z,4.92
2018-09-15T05:35:52.749Z,4.17
2018-09-15T05:40:45.986Z,5.12
2018-09-15T05:45:39.266Z,4.30
2018-09-15T05:50:32.514Z,4.58
2018-09-15T05:55:25.730Z,5.53
2018-09-15T06:00:19.128Z,8.55
2018-09-15T06:05:13.021Z,7.12
2018-09-15T06:10:06.338Z,5.60
2018-09-15T06:14:59.592Z,9.58
2018-09-15T06:19:52.849Z,6.35
2018-09-15T06:24:46.094Z,5.87
2018-09-15T06:29:39.327Z,7.10
2018-09-15T06:34:32.659Z,8.18
2018-09-15T06:39:25.925Z,10.72
2018-09-15T06:44:19.154Z,6.87
2018-09-15T06:49:12.417Z,7.87
2018-09-15T06:54:05.667Z,8.45
2018-09-15T06:58:58.964Z,4.70
2018-09-15T07:03:52.213Z,3.50
2018-09-15T07:08:45.621Z,8.30
2018-09-15T07:13:38.864Z,7.25
2018-09-15T07:18:32.127Z,7.22
2018-09-15T07:23:25.393Z,6.58
2018-09-15T07:28:18.698Z,7.33
2018-09-15T07:33:12.943Z,3.92
2018-09-15T07:38:06.291Z,5.05
2018-09-15T07:43:00.127Z,6.35
2018-09-15T07:47:53.382Z,6.22
2018-09-15T07:52:46.653Z,7.08
2018-09-15T07:57:40.170Z,7.67
2018-09-15T08:02:33.328Z,5.72
2018-09-15T08:07:26.589Z,6.90
2018-09-15T08:12:20.093Z,6.28
2018-09-15T08:17:13.407Z,7.42
2018-09-15T08:22:06.657Z,5.62
2018-09-15T08:27:00.238Z,5.22
2018-09-15T08:31:53.528Z,7.03
2018-09-15T08:36:46.816Z,6.20
2018-09-15T08:41:40.338Z,8.23
2018-09-15T08:46:33.852Z,8.10
2018-09-15T08:51:27.113Z,5.97
2018-09-15T08:56:21.095Z,7.00
2018-09-15T09:01:14.338Z,6.37
2018-09-15T09:06:07.617Z,9.10
2018-09-15T09:11:00.845Z,6.83
2018-09-15T09:15:54.154Z,7.17
2018-09-15T09:20:47.479Z,5.42
2018-09-15T09:25:40.742Z,5.00
2018-09-15T09:30:34.271Z,9.15
2018-09-15T09:35:27.492Z,9.07
2018-09-15T09:40:21.593Z,8.03
2018-09-15T09:45:14.821Z,4.90
2018-09-15T09:50:08.098Z,4.75
2018-09-15T09:55:01.414Z,2.92
2018-09-15T09:59:54.707Z,6.65
2018-09-15T10:04:48.032Z,6.17
2018-09-15T10:09:41.284Z,5.55
2018-09-15T10:14:34.528Z,8.58
2018-09-15T10:19:27.773Z,10.32
2018-09-15T10:24:21.075Z,5.90
2018-09-15T10:29:14.421Z,5.12
2018-09-15T10:34:07.711Z,5.65
2018-09-15T10:39:01.009Z,6.03
2018-09-15T10:43:54.255Z,4.40
2018-09-15T10:48:47.565Z,6.37
2018-09-15T10:53:41.791Z,6.85
2018-09-15T10:58:35.021Z,3.45
2018-09-15T11:03:28.249Z,3.92
2018-09-15T11:08:21.491Z,7.47
2018-09-15T11:13:14.780Z,5.75
2018-09-15T11:18:08.053Z,5.67
2018-09-15T11:23:01.328Z,2.98
2018-09-15T11:27:54.779Z,4.22
2018-09-15T11:32:48.145Z,5.45
2018-09-15T11:37:41.495Z,3.92
2018-09-15T11:42:34.900Z,3.35
2018-09-15T11:47:28.258Z,4.17
2018-09-15T11:52:21.483Z,4.15
2018-09-15T11:57:14.868Z,6.97
2018-09-15T12:02:08.523Z,4.28
2018-09-15T12:07:01.752Z,4.60
2018-09-15T12:11:55.007Z,3.80
2018-09-15T12:16:48.260Z,2.70
2018-09-15T12:21:41.700Z,5.15
2018-09-15T12:26:34.926Z,3.90
2018-09-15T12:31:28.168Z,3.67
2018-09-15T12:36:21.462Z,3.67
2018-09-15T12:41:14.741Z,3.85
2018-09-15T12:46:08.026Z,2.33
2018-09-15T12:51:01.272Z,4.62
2018-09-15T12:55:54.505Z,4.53
2018-09-15T13:00:47.819Z,4.50
2018-09-15T13:05:41.116Z,5.12
2018-09-15T13:10:34.355Z,4.28
2018-09-15T13:15:28.593Z,3.08
2018-09-15T13:20:22.530Z,4.65
2018-09-15T13:25:15.819Z,3.35
2018-09-15T13:30:09.352Z,3.50
2018-09-15T13:35:02.598Z,2.37
2018-09-15T13:39:55.846Z,2.50
2018-09-15T13:44:49.117Z,2.37
2018-09-15T13:49:42.405Z,3.65
2018-09-15T13:54:35.640Z,3.05
2018-09-15T13:59:28.965Z,2.05
2018-09-15T14:04:22.341Z,2.08
2018-09-15T14:09:15.524Z,2.35
2018-09-15T14:14:08.780Z,2.17
2018-09-15T14:19:02.083Z,2.67
2018-09-15T14:23:55.368Z,3.37
2018-09-15T14:28:48.670Z,4.33
2018-09-15T14:33:42.045Z,3.67
2018-09-15T14:38:35.368Z,3.22
2018-09-15T14:43:28.719Z,5.22
2018-09-15T14:48:21.987Z,3.35
2018-09-15T14:53:15.245Z,3.53
2018-09-15T14:58:08.840Z,3.60
2018-09-15T15:03:04.267Z,4.60
2018-09-15T15:07:57.653Z,5.03
2018-09-15T15:12:51.061Z,3.02
2018-09-15T15:17:44.292Z,4.45
2018-09-15T15:22:37.848Z,3.90
2018-09-15T15:27:31.118Z,4.08
2018-09-15T15:32:24.452Z,3.70
2018-09-15T15:37:17.681Z,2.85
2018-09-15T15:42:10.933Z,2.30
2018-09-15T15:47:04.223Z,2.92
2018-09-15T15:51:57.558Z,2.75
2018-09-15T15:56:50.861Z,2.85
2018-09-15T16:01:44.136Z,2.45
2018-09-15T16:06:37.396Z,1.40
2018-09-15T16:11:30.626Z,4.53
2018-09-15T16:16:23.902Z,3.12
2018-09-15T16:21:17.206Z,2.83
2018-09-15T16:26:10.545Z,5.25
2018-09-15T16:31:03.889Z,3.47
2018-09-15T16:35:57.162Z,3.37
2018-09-15T16:40:50.433Z,4.35
2018-09-15T16:45:43.726Z,3.92
2018-09-15T16:50:36.931Z,6.85
2018-09-15T16:55:30.193Z,3.80
2018-09-15T17:00:23.434Z,4.00
2018-09-15T17:05:16.663Z,2.70
2018-09-15T17:10:09.899Z,8.05
2018-09-15T17:15:03.173Z,4.45
2018-09-15T17:19:56.490Z,4.78
2018-09-15T17:24:49.728Z,7.67
2018-09-15T17:29:42.968Z,4.10
2018-09-15T17:34:36.319Z,4.70
2018-09-15T17:39:29.563Z,5.58
2018-09-15T17:44:22.796Z,5.92
2018-09-15T17:49:16.063Z,5.40
2018-09-15T17:54:09.370Z,5.70
2018-09-15T17:59:02.726Z,8.68
2018-09-15T18:03:55.952Z,8.98
2018-09-15T18:08:49.594Z,13.08
2018-09-15T18:13:42.878Z,8.68
2018-09-15T18:18:36.220Z,9.38
2018-09-15T18:23:29.437Z,5.33
2018-09-15T18:28:22.735Z,6.92
2018-09-15T18:33:15.963Z,10.63
2018-09-15T18:38:09.266Z,7.92
2018-09-15T18:43:02.551Z,9.08
2018-09-15T18:47:56.304Z,6.10
2018-09-15T18:52:49.564Z,10.35
2018-09-15T18:57:42.783Z,7.83
2018-09-15T19:02:36.242Z,9.20
2018-09-15T19:07:29.668Z,6.60
2018-09-15T19:12:22.985Z,8.50
2018-09-15T19:17:16.246Z,11.75
2018-09-15T19:22:09.622Z,20.62
2018-09-15T19:27:02.958Z,11.80
2018-09-15T19:31:56.219Z,7.40
2018-09-15T19:36:49.908Z,11.12
2018-09-15T19:41:43.169Z,11.55
2018-09-15T19:46:37.826Z,14.00
2018-09-15T19:51:31.088Z,20.88
2018-09-15T19:56:24.328Z,13.60
2018-09-15T20:01:17.540Z,13.90
2018-09-15T20:06:11.010Z,12.10
2018-09-15T20:11:04.231Z,10.23
2018-09-15T20:15:55.852Z,8.95
2018-09-15T20:20:47.509Z,7.83
2018-09-15T20:25:41.738Z,7.97
2018-09-15T20:30:34.976Z,7.45
2018-09-15T20:35:28.201Z,11.12
2018-09-15T20:40:21.489Z,9.48
2018-09-15T20:45:14.791Z,8.90
2018-09-15T20:50:08.784Z,9.18
2018-09-15T20:55:02.115Z,10.95
2018-09-15T20:59:55.338Z,11.80
2018-09-15T21:04:49.242Z,11.10
2018-09-15T21:09:42.778Z,13.08
2018-09-15T21:14:36.095Z,11.25
2018-09-15T21:19:29.347Z,9.30
2018-09-15T21:24:22.584Z,9.25
2018-09-15T21:29:15.838Z,9.65
2018-09-15T21:34:09.055Z,12.37
2018-09-15T21:39:02.395Z,10.70
2018-09-15T21:43:55.671Z,9.03
2018-09-15T21:48:48.915Z,9.85
2018-09-15T21:53:42.258Z,8.13
2018-09-15T21:58:35.449Z,14.80
2018-09-15T22:03:28.782Z,11.48
2018-09-15T22:08:22.083Z,12.13
2018-09-15T22:13:15.375Z,10.93
2018-09-15T22:18:08.630Z,10.38
2018-09-15T22:23:01.908Z,9.95
2018-09-15T22:27:55.136Z,10.85
2018-09-15T22:32:48.394Z,7.33
2018-09-15T22:37:41.692Z,9.05
2018-09-15T22:42:34.919Z,8.18
2018-09-15T22:47:28.646Z,12.47
2018-09-15T22:52:21.892Z,8.00
2018-09-15T22:57:15.141Z,10.73
2018-09-15T23:02:08.435Z,10.10
2018-09-15T23:07:02.751Z,9.68
2018-09-15T23:11:56.017Z,10.32
2018-09-15T23:16:49.276Z,7.80
2018-09-15T23:21:42.619Z,9.10
2018-09-15T23:26:35.878Z,7.75
2018-09-15T23:31:29.142Z,7.30
2018-09-15T23:36:22.427Z,8.90
2018-09-15T23:41:15.664Z,6.28
2018-09-15T23:46:09.324Z,4.78
2018-09-15T23:51:02.627Z,8.23
2018-09-15T23:55:55.930Z,7.28
